sensor_id;sensor_type;location;lat;lon;timestamp;P1;durP1;ratioP1;P2;durP2;ratioP2
57573;SDS011;68988;49.000;21.242;2024-03-23T00:52:56;3.10;;;2.90;;
57573;SDS011;68988;49.000;21.242;2024-03-23T00:55:21;3.20;;;3.08;;
57573;SDS011;68988;49.000;21.242;2024-03-23T00:57:47;2.97;;;2.88;;
57573;SDS011;68988;49.000;21.242;2024-03-23T01:00:12;3.17;;;2.97;;
57573;SDS011;68988;49.000;21.242;2024-03-23T01:02:38;3.15;;;2.90;;
57573;SDS011;68988;49.000;21.242;2024-03-23T01:05:04;3.42;;;3.22;;
57573;SDS011;68988;49.000;21.242;2024-03-23T01:07:29;3.17;;;3.08;;
57573;SDS011;68988;49.000;21.242;2024-03-23T01:09:55;3.30;;;3.10;;
57573;SDS011;68988;49.000;21.242;2024-03-23T01:12:20;3.50;;;3.30;;
57573;SDS011;68988;49.000;21.242;2024-03-23T01:14:46;3.00;;;2.83;;
57573;SDS011;68988;49.000;21.242;2024-03-23T01:17:12;3.03;;;2.92;;
57573;SDS011;68988;49.000;21.242;2024-03-23T01:19:37;3.80;;;3.50;;
57573;SDS011;68988;49.000;21.242;2024-03-23T01:22:04;3.40;;;3.20;;
57573;SDS011;68988;49.000;21.242;2024-03-23T01:24:30;3.80;;;3.60;;
57573;SDS011;68988;49.000;21.242;2024-03-23T01:26:55;3.42;;;3.22;;
57573;SDS011;68988;49.000;21.242;2024-03-23T01:29:20;3.35;;;3.15;;
57573;SDS011;68988;49.000;21.242;2024-03-23T01:31:46;3.50;;;3.30;;
57573;SDS011;68988;49.000;21.242;2024-03-23T01:34:11;3.20;;;3.00;;
57573;SDS011;68988;49.000;21.242;2024-03-23T01:36:37;3.20;;;3.00;;
57573;SDS011;68988;49.000;21.242;2024-03-23T01:39:03;3.60;;;3.40;;
57573;SDS011;68988;49.000;21.242;2024-03-23T01:41:28;3.13;;;2.92;;
57573;SDS011;68988;49.000;21.242;2024-03-23T01:43:54;3.22;;;3.03;;
57573;SDS011;68988;49.000;21.242;2024-03-23T01:46:20;3.25;;;3.05;;
57573;SDS011;68988;49.000;21.242;2024-03-23T01:48:46;3.60;;;3.30;;
57573;SDS011;68988;49.000;21.242;2024-03-23T01:51:12;3.40;;;3.20;;
57573;SDS011;68988;49.000;21.242;2024-03-23T01:53:38;3.03;;;2.92;;
57573;SDS011;68988;49.000;21.242;2024-03-23T01:56:04;3.15;;;2.95;;
57573;SDS011;68988;49.000;21.242;2024-03-23T01:58:30;3.92;;;3.35;;
57573;SDS011;68988;49.000;21.242;2024-03-23T02:00:57;3.20;;;3.00;;
57573;SDS011;68988;49.000;21.242;2024-03-23T02:03:23;3.28;;;3.10;;
57573;SDS011;68988;49.000;21.242;2024-03-23T02:05:53;3.40;;;3.20;;
57573;SDS011;68988;49.000;21.242;2024-03-23T02:08:20;3.33;;;3.13;;
57573;SDS011;68988;49.000;21.242;2024-03-23T02:10:47;3.55;;;3.35;;
57573;SDS011;68988;49.000;21.242;2024-03-23T02:13:14;3.10;;;2.90;;
57573;SDS011;68988;49.000;21.242;2024-03-23T02:15:41;3.33;;;3.13;;
57573;SDS011;68988;49.000;21.242;2024-03-23T02:18:07;3.30;;;3.10;;
57573;SDS011;68988;49.000;21.242;2024-03-23T02:20:34;3.25;;;3.05;;
57573;SDS011;68988;49.000;21.242;2024-03-23T02:23:00;3.33;;;3.17;;
57573;SDS011;68988;49.000;21.242;2024-03-23T02:25:25;3.42;;;3.22;;
57573;SDS011;68988;49.000;21.242;2024-03-23T02:27:50;3.47;;;3.28;;
57573;SDS011;68988;49.000;21.242;2024-03-23T02:30:16;2.95;;;2.85;;
57573;SDS011;68988;49.000;21.242;2024-03-23T02:32:41;3.50;;;3.30;;
57573;SDS011;68988;49.000;21.242;2024-03-23T02:35:08;3.35;;;3.15;;
57573;SDS011;68988;49.000;21.242;2024-03-23T02:37:33;3.00;;;2.90;;
57573;SDS011;68988;49.000;21.242;2024-03-23T02:39:59;3.28;;;3.13;;
57573;SDS011;68988;49.000;21.242;2024-03-23T02:42:24;3.70;;;3.50;;
57573;SDS011;68988;49.000;21.242;2024-03-23T02:44:50;3.40;;;3.20;;
57573;SDS011;68988;49.000;21.242;2024-03-23T02:47:15;3.03;;;2.92;;
57573;SDS011;68988;49.000;21.242;2024-03-23T02:49:40;2.80;;;2.70;;
57573;SDS011;68988;49.000;21.242;2024-03-23T02:52:06;3.05;;;2.88;;
57573;SDS011;68988;49.000;21.242;2024-03-23T02:54:31;3.50;;;3.30;;
57573;SDS011;68988;49.000;21.242;2024-03-23T02:56:56;3.42;;;3.25;;
57573;SDS011;68988;49.000;21.242;2024-03-23T02:59:22;2.90;;;2.80;;
57573;SDS011;68988;49.000;21.242;2024-03-23T03:01:47;3.40;;;3.20;;
57573;SDS011;68988;49.000;21.242;2024-03-23T03:04:13;3.70;;;3.40;;
57573;SDS011;68988;49.000;21.242;2024-03-23T03:06:38;3.60;;;3.40;;
57573;SDS011;68988;49.000;21.242;2024-03-23T03:09:03;3.35;;;3.15;;
57573;SDS011;68988;49.000;21.242;2024-03-23T03:11:29;3.03;;;2.90;;
57573;SDS011;68988;49.000;21.242;2024-03-23T03:13:55;3.42;;;3.22;;
57573;SDS011;68988;49.000;21.242;2024-03-23T03:16:20;3.38;;;3.17;;
57573;SDS011;68988;49.000;21.242;2024-03-23T03:18:45;3.45;;;3.25;;
57573;SDS011;68988;49.000;21.242;2024-03-23T03:21:11;3.15;;;2.95;;
57573;SDS011;68988;49.000;21.242;2024-03-23T03:23:37;3.50;;;3.30;;
57573;SDS011;68988;49.000;21.242;2024-03-23T03:26:03;3.42;;;3.22;;
57573;SDS011;68988;49.000;21.242;2024-03-23T03:28:32;3.20;;;3.10;;
57573;SDS011;68988;49.000;21.242;2024-03-23T03:30:58;2.95;;;2.85;;
57573;SDS011;68988;49.000;21.242;2024-03-23T03:33:25;3.50;;;3.30;;
57573;SDS011;68988;49.000;21.242;2024-03-23T03:35:51;3.17;;;2.97;;
57573;SDS011;68988;49.000;21.242;2024-03-23T03:38:18;3.13;;;3.00;;
57573;SDS011;68988;49.000;21.242;2024-03-23T03:40:44;3.28;;;3.08;;
57573;SDS011;68988;49.000;21.242;2024-03-23T03:43:09;3.30;;;3.10;;
57573;SDS011;68988;49.000;21.242;2024-03-23T03:45:35;3.65;;;3.40;;
57573;SDS011;68988;49.000;21.242;2024-03-23T03:48:00;3.17;;;3.00;;
57573;SDS011;68988;49.000;21.242;2024-03-23T03:50:25;3.40;;;3.20;;
57573;SDS011;68988;49.000;21.242;2024-03-23T03:52:51;3.50;;;3.30;;
57573;SDS011;68988;49.000;21.242;2024-03-23T03:55:16;3.33;;;3.20;;
57573;SDS011;68988;49.000;21.242;2024-03-23T03:57:42;3.03;;;2.83;;
57573;SDS011;68988;49.000;21.242;2024-03-23T04:00:07;3.60;;;3.30;;
57573;SDS011;68988;49.000;21.242;2024-03-23T04:02:39;3.45;;;3.25;;
57573;SDS011;68988;49.000;21.242;2024-03-23T04:05:04;3.65;;;3.42;;
57573;SDS011;68988;49.000;21.242;2024-03-23T04:07:30;3.60;;;3.40;;
57573;SDS011;68988;49.000;21.242;2024-03-23T04:09:56;3.28;;;3.08;;
57573;SDS011;68988;49.000;21.242;2024-03-23T04:12:21;3.38;;;3.17;;
57573;SDS011;68988;49.000;21.242;2024-03-23T04:14:47;3.55;;;3.35;;
57573;SDS011;68988;49.000;21.242;2024-03-23T04:17:12;3.47;;;3.28;;
57573;SDS011;68988;49.000;21.242;2024-03-23T04:19:37;3.50;;;3.20;;
57573;SDS011;68988;49.000;21.242;2024-03-23T04:22:04;3.47;;;3.28;;
57573;SDS011;68988;49.000;21.242;2024-03-23T04:24:30;2.88;;;2.78;;
57573;SDS011;68988;49.000;21.242;2024-03-23T04:26:55;3.60;;;3.40;;
57573;SDS011;68988;49.000;21.242;2024-03-23T04:29:21;3.35;;;3.15;;
57573;SDS011;68988;49.000;21.242;2024-03-23T04:31:47;3.50;;;3.30;;
57573;SDS011;68988;49.000;21.242;2024-03-23T04:34:12;3.42;;;3.22;;
57573;SDS011;68988;49.000;21.242;2024-03-23T04:36:38;3.35;;;3.17;;
57573;SDS011;68988;49.000;21.242;2024-03-23T04:39:05;3.55;;;3.35;;
57573;SDS011;68988;49.000;21.242;2024-03-23T04:41:33;3.53;;;3.05;;
57573;SDS011;68988;49.000;21.242;2024-03-23T04:43:59;3.70;;;3.40;;
57573;SDS011;68988;49.000;21.242;2024-03-23T04:46:24;3.03;;;2.92;;
57573;SDS011;68988;49.000;21.242;2024-03-23T04:48:49;4.03;;;3.55;;
57573;SDS011;68988;49.000;21.242;2024-03-23T04:51:21;3.20;;;3.00;;
57573;SDS011;68988;49.000;21.242;2024-03-23T04:53:50;3.33;;;3.15;;
57573;SDS011;68988;49.000;21.242;2024-03-23T04:56:16;3.15;;;3.05;;
57573;SDS011;68988;49.000;21.242;2024-03-23T04:58:42;3.70;;;3.50;;
57573;SDS011;68988;49.000;21.242;2024-03-23T05:01:07;3.47;;;3.28;;
57573;SDS011;68988;49.000;21.242;2024-03-23T05:03:33;2.97;;;2.78;;
57573;SDS011;68988;49.000;21.242;2024-03-23T05:05:59;3.45;;;3.25;;
57573;SDS011;68988;49.000;21.242;2024-03-23T05:08:24;5.53;;;3.20;;
57573;SDS011;68988;49.000;21.242;2024-03-23T05:10:49;3.55;;;3.35;;
57573;SDS011;68988;49.000;21.242;2024-03-23T05:13:15;3.45;;;3.25;;
57573;SDS011;68988;49.000;21.242;2024-03-23T05:15:40;3.33;;;3.13;;
57573;SDS011;68988;49.000;21.242;2024-03-23T05:18:06;3.47;;;3.28;;
57573;SDS011;68988;49.000;21.242;2024-03-23T05:20:31;3.03;;;2.92;;
57573;SDS011;68988;49.000;21.242;2024-03-23T05:22:57;3.55;;;3.35;;
57573;SDS011;68988;49.000;21.242;2024-03-23T05:25:22;3.47;;;3.28;;
57573;SDS011;68988;49.000;21.242;2024-03-23T05:27:48;3.70;;;3.50;;
57573;SDS011;68988;49.000;21.242;2024-03-23T05:30:14;3.47;;;3.28;;
57573;SDS011;68988;49.000;21.242;2024-03-23T05:32:39;3.00;;;2.90;;
57573;SDS011;68988;49.000;21.242;2024-03-23T05:35:07;3.33;;;3.13;;
57573;SDS011;68988;49.000;21.242;2024-03-23T05:37:33;3.30;;;3.10;;
57573;SDS011;68988;49.000;21.242;2024-03-23T05:40:02;2.97;;;2.88;;
57573;SDS011;68988;49.000;21.242;2024-03-23T05:42:28;3.20;;;3.10;;
57573;SDS011;68988;49.000;21.242;2024-03-23T05:44:54;3.30;;;3.10;;
57573;SDS011;68988;49.000;21.242;2024-03-23T05:47:19;3.35;;;3.15;;
57573;SDS011;68988;49.000;21.242;2024-03-23T05:49:45;3.22;;;3.03;;
57573;SDS011;68988;49.000;21.242;2024-03-23T05:52:11;3.03;;;2.88;;
57573;SDS011;68988;49.000;21.242;2024-03-23T05:54:37;3.40;;;3.20;;
57573;SDS011;68988;49.000;21.242;2024-03-23T05:57:02;3.17;;;2.97;;
57573;SDS011;68988;49.000;21.242;2024-03-23T05:59:28;3.40;;;3.30;;
57573;SDS011;68988;49.000;21.242;2024-03-23T06:01:54;3.10;;;3.00;;
57573;SDS011;68988;49.000;21.242;2024-03-23T06:04:19;3.58;;;3.38;;
57573;SDS011;68988;49.000;21.242;2024-03-23T06:06:45;3.30;;;3.10;;
57573;SDS011;68988;49.000;21.242;2024-03-23T06:09:10;3.00;;;2.80;;
57573;SDS011;68988;49.000;21.242;2024-03-23T06:11:36;3.30;;;3.10;;
57573;SDS011;68988;49.000;21.242;2024-03-23T06:14:02;3.17;;;2.97;;
57573;SDS011;68988;49.000;21.242;2024-03-23T06:16:27;3.00;;;2.90;;
57573;SDS011;68988;49.000;21.242;2024-03-23T06:18:53;3.47;;;3.28;;
57573;SDS011;68988;49.000;21.242;2024-03-23T06:21:20;2.90;;;2.80;;
57573;SDS011;68988;49.000;21.242;2024-03-23T06:23:45;2.95;;;2.85;;
57573;SDS011;68988;49.000;21.242;2024-03-23T06:26:17;2.97;;;2.85;;
57573;SDS011;68988;49.000;21.242;2024-03-23T06:28:43;3.20;;;3.00;;
57573;SDS011;68988;49.000;21.242;2024-03-23T06:31:09;3.15;;;2.95;;
57573;SDS011;68988;49.000;21.242;2024-03-23T06:33:35;3.38;;;3.17;;
57573;SDS011;68988;49.000;21.242;2024-03-23T06:36:00;3.30;;;3.10;;
57573;SDS011;68988;49.000;21.242;2024-03-23T06:38:27;3.55;;;3.35;;
57573;SDS011;68988;49.000;21.242;2024-03-23T06:40:52;3.45;;;3.25;;
57573;SDS011;68988;49.000;21.242;2024-03-23T06:43:18;3.30;;;3.10;;
57573;SDS011;68988;49.000;21.242;2024-03-23T06:45:43;3.58;;;3.38;;
57573;SDS011;68988;49.000;21.242;2024-03-23T06:48:09;3.17;;;3.08;;
57573;SDS011;68988;49.000;21.242;2024-03-23T06:50:34;3.28;;;3.08;;
57573;SDS011;68988;49.000;21.242;2024-03-23T06:53:00;3.42;;;3.22;;
57573;SDS011;68988;49.000;21.242;2024-03-23T06:55:27;3.60;;;3.30;;
57573;SDS011;68988;49.000;21.242;2024-03-23T06:57:53;2.95;;;2.85;;
57573;SDS011;68988;49.000;21.242;2024-03-23T07:00:18;3.30;;;3.05;;
57573;SDS011;68988;49.000;21.242;2024-03-23T07:02:44;3.00;;;2.90;;
57573;SDS011;68988;49.000;21.242;2024-03-23T07:05:10;3.13;;;3.03;;
57573;SDS011;68988;49.000;21.242;2024-03-23T07:07:36;3.22;;;3.08;;
57573;SDS011;68988;49.000;21.242;2024-03-23T07:10:03;3.05;;;2.95;;
57573;SDS011;68988;49.000;21.242;2024-03-23T07:12:30;3.20;;;3.00;;
57573;SDS011;68988;49.000;21.242;2024-03-23T07:14:55;3.15;;;2.95;;
57573;SDS011;68988;49.000;21.242;2024-03-23T07:17:21;3.00;;;2.70;;
57573;SDS011;68988;49.000;21.242;2024-03-23T07:19:46;2.80;;;2.60;;
57573;SDS011;68988;49.000;21.242;2024-03-23T07:22:12;2.90;;;2.80;;
57573;SDS011;68988;49.000;21.242;2024-03-23T07:24:38;2.97;;;2.88;;
57573;SDS011;68988;49.000;21.242;2024-03-23T07:27:04;3.47;;;3.28;;
57573;SDS011;68988;49.000;21.242;2024-03-23T07:29:30;3.55;;;3.25;;
57573;SDS011;68988;49.000;21.242;2024-03-23T07:31:55;3.17;;;3.00;;
57573;SDS011;68988;49.000;21.242;2024-03-23T07:34:20;3.15;;;3.05;;
57573;SDS011;68988;49.000;21.242;2024-03-23T07:36:46;3.40;;;3.20;;
57573;SDS011;68988;49.000;21.242;2024-03-23T07:39:11;2.92;;;2.83;;
57573;SDS011;68988;49.000;21.242;2024-03-23T07:41:37;2.78;;;2.67;;
57573;SDS011;68988;49.000;21.242;2024-03-23T07:44:02;3.22;;;3.03;;
57573;SDS011;68988;49.000;21.242;2024-03-23T07:46:27;3.47;;;3.28;;
57573;SDS011;68988;49.000;21.242;2024-03-23T07:48:53;3.08;;;2.92;;
57573;SDS011;68988;49.000;21.242;2024-03-23T07:51:22;3.38;;;3.17;;
57573;SDS011;68988;49.000;21.242;2024-03-23T07:53:48;3.30;;;3.10;;
57573;SDS011;68988;49.000;21.242;2024-03-23T07:56:13;3.08;;;2.97;;
57573;SDS011;68988;49.000;21.242;2024-03-23T07:58:46;2.88;;;2.78;;
57573;SDS011;68988;49.000;21.242;2024-03-23T08:01:13;3.13;;;2.92;;
57573;SDS011;68988;49.000;21.242;2024-03-23T08:03:41;3.30;;;3.10;;
57573;SDS011;68988;49.000;21.242;2024-03-23T08:08:39;3.13;;;2.92;;
57573;SDS011;68988;49.000;21.242;2024-03-23T08:11:05;3.25;;;3.05;;
57573;SDS011;68988;49.000;21.242;2024-03-23T08:13:31;3.03;;;2.88;;
57573;SDS011;68988;49.000;21.242;2024-03-23T08:15:57;3.28;;;3.13;;
57573;SDS011;68988;49.000;21.242;2024-03-23T08:18:23;2.88;;;2.78;;
57573;SDS011;68988;49.000;21.242;2024-03-23T08:23:27;2.72;;;2.63;;
57573;SDS011;68988;49.000;21.242;2024-03-23T08:26:02;2.78;;;2.58;;
57573;SDS011;68988;49.000;21.242;2024-03-23T08:28:29;3.28;;;3.08;;
57573;SDS011;68988;49.000;21.242;2024-03-23T08:30:55;3.30;;;3.10;;
57573;SDS011;68988;49.000;21.242;2024-03-23T08:33:21;3.13;;;3.03;;
57573;SDS011;68988;49.000;21.242;2024-03-23T08:35:56;2.88;;;2.75;;
57573;SDS011;68988;49.000;21.242;2024-03-23T08:38:23;2.90;;;2.80;;
57573;SDS011;68988;49.000;21.242;2024-03-23T08:40:59;3.00;;;2.80;;
57573;SDS011;68988;49.000;21.242;2024-03-23T08:43:29;3.20;;;3.10;;
57573;SDS011;68988;49.000;21.242;2024-03-23T08:46:03;3.00;;;2.90;;
57573;SDS011;68988;49.000;21.242;2024-03-23T08:48:36;3.30;;;3.10;;
57573;SDS011;68988;49.000;21.242;2024-03-23T08:51:03;3.40;;;3.28;;
57573;SDS011;68988;49.000;21.242;2024-03-23T08:53:29;3.03;;;2.85;;
57573;SDS011;68988;49.000;21.242;2024-03-23T08:55:56;3.42;;;3.22;;
57573;SDS011;68988;49.000;21.242;2024-03-23T08:58:25;3.17;;;2.97;;
57573;SDS011;68988;49.000;21.242;2024-03-23T09:00:53;3.25;;;3.05;;
57573;SDS011;68988;49.000;21.242;2024-03-23T09:03:23;3.22;;;3.03;;
57573;SDS011;68988;49.000;21.242;2024-03-23T09:05:49;3.25;;;3.15;;
57573;SDS011;68988;49.000;21.242;2024-03-23T09:08:16;2.72;;;2.63;;
57573;SDS011;68988;49.000;21.242;2024-03-23T09:10:41;3.13;;;2.92;;
57573;SDS011;68988;49.000;21.242;2024-03-23T09:13:07;3.10;;;2.90;;
57573;SDS011;68988;49.000;21.242;2024-03-23T09:15:36;3.20;;;3.00;;
57573;SDS011;68988;49.000;21.242;2024-03-23T09:18:02;3.35;;;3.15;;
57573;SDS011;68988;49.000;21.242;2024-03-23T09:20:28;3.10;;;3.00;;
57573;SDS011;68988;49.000;21.242;2024-03-23T09:22:54;3.22;;;3.03;;
57573;SDS011;68988;49.000;21.242;2024-03-23T09:25:19;3.13;;;2.92;;
57573;SDS011;68988;49.000;21.242;2024-03-23T09:27:48;3.10;;;2.90;;
57573;SDS011;68988;49.000;21.242;2024-03-23T09:30:14;3.35;;;3.15;;
57573;SDS011;68988;49.000;21.242;2024-03-23T09:32:43;3.20;;;3.10;;
57573;SDS011;68988;49.000;21.242;2024-03-23T09:35:09;3.40;;;3.20;;
57573;SDS011;68988;49.000;21.242;2024-03-23T09:37:35;3.17;;;2.97;;
57573;SDS011;68988;49.000;21.242;2024-03-23T09:40:01;3.35;;;3.15;;
57573;SDS011;68988;49.000;21.242;2024-03-23T09:42:27;3.65;;;3.45;;
57573;SDS011;68988;49.000;21.242;2024-03-23T09:44:53;2.90;;;2.80;;
57573;SDS011;68988;49.000;21.242;2024-03-23T09:47:22;2.72;;;2.63;;
57573;SDS011;68988;49.000;21.242;2024-03-23T09:49:50;3.00;;;2.90;;
57573;SDS011;68988;49.000;21.242;2024-03-23T09:52:15;3.50;;;3.30;;
57573;SDS011;68988;49.000;21.242;2024-03-23T09:54:40;3.10;;;3.00;;
57573;SDS011;68988;49.000;21.242;2024-03-23T09:57:06;3.22;;;3.03;;
57573;SDS011;68988;49.000;21.242;2024-03-23T09:59:32;3.30;;;3.00;;
57573;SDS011;68988;49.000;21.242;2024-03-23T10:01:59;3.00;;;2.90;;
57573;SDS011;68988;49.000;21.242;2024-03-23T10:04:41;3.75;;;2.95;;
57573;SDS011;68988;49.000;21.242;2024-03-23T10:07:18;3.00;;;2.90;;
57573;SDS011;68988;49.000;21.242;2024-03-23T10:09:44;3.10;;;2.90;;
57573;SDS011;68988;49.000;21.242;2024-03-23T10:12:11;2.78;;;2.67;;
57573;SDS011;68988;49.000;21.242;2024-03-23T10:14:38;3.00;;;2.90;;
57573;SDS011;68988;49.000;21.242;2024-03-23T10:17:18;2.95;;;2.85;;
57573;SDS011;68988;49.000;21.242;2024-03-23T10:19:45;2.95;;;2.85;;
57573;SDS011;68988;49.000;21.242;2024-03-23T10:22:13;3.03;;;2.83;;
57573;SDS011;68988;49.000;21.242;2024-03-23T10:24:39;3.05;;;2.85;;
57573;SDS011;68988;49.000;21.242;2024-03-23T10:27:05;3.05;;;2.95;;
57573;SDS011;68988;49.000;21.242;2024-03-23T10:29:30;3.15;;;2.95;;
57573;SDS011;68988;49.000;21.242;2024-03-23T10:32:29;3.25;;;3.05;;
57573;SDS011;68988;49.000;21.242;2024-03-23T10:34:47;3.10;;;3.00;;
57573;SDS011;68988;49.000;21.242;2024-03-23T10:37:13;2.70;;;2.60;;
57573;SDS011;68988;49.000;21.242;2024-03-23T10:39:39;3.10;;;3.00;;
57573;SDS011;68988;49.000;21.242;2024-03-23T10:42:06;3.33;;;3.15;;
57573;SDS011;68988;49.000;21.242;2024-03-23T10:44:33;3.20;;;3.00;;
57573;SDS011;68988;49.000;21.242;2024-03-23T10:47:00;3.28;;;3.08;;
57573;SDS011;68988;49.000;21.242;2024-03-23T10:49:31;2.95;;;2.85;;
57573;SDS011;68988;49.000;21.242;2024-03-23T10:51:57;3.20;;;3.00;;
57573;SDS011;68988;49.000;21.242;2024-03-23T10:54:32;2.90;;;2.80;;
57573;SDS011;68988;49.000;21.242;2024-03-23T10:59:45;2.80;;;2.70;;
57573;SDS011;68988;49.000;21.242;2024-03-23T11:02:21;3.53;;;2.90;;
57573;SDS011;68988;49.000;21.242;2024-03-23T11:04:46;3.30;;;3.10;;
57573;SDS011;68988;49.000;21.242;2024-03-23T11:09:54;2.63;;;2.53;;
57573;SDS011;68988;49.000;21.242;2024-03-23T11:14:49;2.83;;;2.72;;
57573;SDS011;68988;49.000;21.242;2024-03-23T11:17:22;3.13;;;3.00;;
57573;SDS011;68988;49.000;21.242;2024-03-23T11:19:56;2.97;;;2.78;;
57573;SDS011;68988;49.000;21.242;2024-03-23T11:27:47;3.17;;;3.08;;
57573;SDS011;68988;49.000;21.242;2024-03-23T11:30:20;2.83;;;2.72;;
57573;SDS011;68988;49.000;21.242;2024-03-23T11:32:50;2.80;;;2.70;;
57573;SDS011;68988;49.000;21.242;2024-03-23T11:35:25;3.10;;;2.90;;
57573;SDS011;68988;49.000;21.242;2024-03-23T11:40:37;3.03;;;2.88;;
57573;SDS011;68988;49.000;21.242;2024-03-23T11:43:14;3.20;;;3.00;;
57573;SDS011;68988;49.000;21.242;2024-03-23T11:45:45;2.97;;;2.85;;
57573;SDS011;68988;49.000;21.242;2024-03-23T11:48:12;3.13;;;3.03;;
57573;SDS011;68988;49.000;21.242;2024-03-23T11:50:41;3.03;;;2.83;;
57573;SDS011;68988;49.000;21.242;2024-03-23T11:55:46;3.10;;;2.90;;
57573;SDS011;68988;49.000;21.242;2024-03-23T11:58:13;2.53;;;2.42;;
57573;SDS011;68988;49.000;21.242;2024-03-23T12:00:39;3.00;;;2.90;;
57573;SDS011;68988;49.000;21.242;2024-03-23T12:03:05;2.80;;;2.70;;
57573;SDS011;68988;49.000;21.242;2024-03-23T12:05:34;3.25;;;3.03;;
57573;SDS011;68988;49.000;21.242;2024-03-23T12:10:53;2.90;;;2.80;;
57573;SDS011;68988;49.000;21.242;2024-03-23T12:13:29;3.00;;;2.90;;
57573;SDS011;68988;49.000;21.242;2024-03-23T12:15:55;2.92;;;2.80;;
57573;SDS011;68988;49.000;21.242;2024-03-23T12:18:33;2.85;;;2.75;;
57573;SDS011;68988;49.000;21.242;2024-03-23T12:20:58;3.00;;;2.80;;
57573;SDS011;68988;49.000;21.242;2024-03-23T12:23:24;2.97;;;2.80;;
57573;SDS011;68988;49.000;21.242;2024-03-23T12:25:49;2.83;;;2.72;;
57573;SDS011;68988;49.000;21.242;2024-03-23T12:28:15;2.70;;;2.60;;
57573;SDS011;68988;49.000;21.242;2024-03-23T12:30:40;3.03;;;2.90;;
57573;SDS011;68988;49.000;21.242;2024-03-23T12:33:06;2.83;;;2.70;;
57573;SDS011;68988;49.000;21.242;2024-03-23T12:35:32;2.72;;;2.63;;
57573;SDS011;68988;49.000;21.242;2024-03-23T12:37:58;3.10;;;3.00;;
57573;SDS011;68988;49.000;21.242;2024-03-23T12:40:23;5.05;;;3.10;;
57573;SDS011;68988;49.000;21.242;2024-03-23T12:42:49;2.45;;;2.35;;
57573;SDS011;68988;49.000;21.242;2024-03-23T12:45:14;3.00;;;2.90;;
57573;SDS011;68988;49.000;21.242;2024-03-23T12:47:40;3.00;;;2.90;;
57573;SDS011;68988;49.000;21.242;2024-03-23T12:50:06;2.60;;;2.50;;
57573;SDS011;68988;49.000;21.242;2024-03-23T12:52:34;2.80;;;2.70;;
57573;SDS011;68988;49.000;21.242;2024-03-23T12:55:00;2.70;;;2.60;;
57573;SDS011;68988;49.000;21.242;2024-03-23T12:57:25;2.83;;;2.72;;
57573;SDS011;68988;49.000;21.242;2024-03-23T12:59:51;3.03;;;2.92;;
57573;SDS011;68988;49.000;21.242;2024-03-23T13:02:20;2.63;;;2.53;;
57573;SDS011;68988;49.000;21.242;2024-03-23T13:04:49;3.92;;;3.03;;
57573;SDS011;68988;49.000;21.242;2024-03-23T13:07:15;2.63;;;2.53;;
57573;SDS011;68988;49.000;21.242;2024-03-23T13:09:40;2.70;;;2.60;;
57573;SDS011;68988;49.000;21.242;2024-03-23T13:12:06;3.20;;;3.00;;
57573;SDS011;68988;49.000;21.242;2024-03-23T13:14:31;3.20;;;3.00;;
57573;SDS011;68988;49.000;21.242;2024-03-23T13:16:57;2.90;;;2.80;;
57573;SDS011;68988;49.000;21.242;2024-03-23T13:19:22;2.83;;;2.72;;
57573;SDS011;68988;49.000;21.242;2024-03-23T13:21:52;2.78;;;2.67;;
57573;SDS011;68988;49.000;21.242;2024-03-23T13:24:27;3.03;;;2.88;;
57573;SDS011;68988;49.000;21.242;2024-03-23T13:26:53;2.83;;;2.72;;
57573;SDS011;68988;49.000;21.242;2024-03-23T13:29:20;2.70;;;2.60;;
57573;SDS011;68988;49.000;21.242;2024-03-23T13:31:46;2.67;;;2.58;;
57573;SDS011;68988;49.000;21.242;2024-03-23T13:34:12;2.70;;;2.60;;
57573;SDS011;68988;49.000;21.242;2024-03-23T13:36:41;2.50;;;2.40;;
57573;SDS011;68988;49.000;21.242;2024-03-23T13:39:08;2.65;;;2.55;;
57573;SDS011;68988;49.000;21.242;2024-03-23T13:44:05;2.70;;;2.60;;
57573;SDS011;68988;49.000;21.242;2024-03-23T13:46:31;2.60;;;2.50;;
57573;SDS011;68988;49.000;21.242;2024-03-23T13:48:58;2.95;;;2.83;;
57573;SDS011;68988;49.000;21.242;2024-03-23T13:51:23;2.90;;;2.80;;
57573;SDS011;68988;49.000;21.242;2024-03-23T13:53:51;2.80;;;2.70;;
57573;SDS011;68988;49.000;21.242;2024-03-23T13:56:17;2.88;;;2.78;;
57573;SDS011;68988;49.000;21.242;2024-03-23T13:58:43;2.92;;;2.72;;
57573;SDS011;68988;49.000;21.242;2024-03-23T14:01:11;2.70;;;2.60;;
57573;SDS011;68988;49.000;21.242;2024-03-23T14:03:41;2.85;;;2.75;;
57573;SDS011;68988;49.000;21.242;2024-03-23T14:06:07;2.58;;;2.47;;
57573;SDS011;68988;49.000;21.242;2024-03-23T14:08:34;2.58;;;2.47;;
57573;SDS011;68988;49.000;21.242;2024-03-23T14:11:04;2.60;;;2.50;;
57573;SDS011;68988;49.000;21.242;2024-03-23T14:13:33;2.35;;;2.25;;
57573;SDS011;68988;49.000;21.242;2024-03-23T14:16:00;2.60;;;2.50;;
57573;SDS011;68988;49.000;21.242;2024-03-23T14:18:26;2.35;;;2.25;;
57573;SDS011;68988;49.000;21.242;2024-03-23T14:20:52;3.00;;;2.90;;
57573;SDS011;68988;49.000;21.242;2024-03-23T14:23:23;2.60;;;2.50;;
57573;SDS011;68988;49.000;21.242;2024-03-23T14:25:49;2.83;;;2.63;;
57573;SDS011;68988;49.000;21.242;2024-03-23T14:28:14;2.35;;;2.25;;
57573;SDS011;68988;49.000;21.242;2024-03-23T14:30:40;2.60;;;2.50;;
57573;SDS011;68988;49.000;21.242;2024-03-23T14:33:06;2.70;;;2.60;;
57573;SDS011;68988;49.000;21.242;2024-03-23T14:35:32;2.72;;;2.63;;
57573;SDS011;68988;49.000;21.242;2024-03-23T14:37:58;3.53;;;2.67;;
57573;SDS011;68988;49.000;21.242;2024-03-23T14:40:23;2.65;;;2.55;;
57573;SDS011;68988;49.000;21.242;2024-03-23T14:42:51;2.50;;;2.40;;
57573;SDS011;68988;49.000;21.242;2024-03-23T14:45:17;2.55;;;2.35;;
57573;SDS011;68988;49.000;21.242;2024-03-23T14:47:42;2.67;;;2.58;;
57573;SDS011;68988;49.000;21.242;2024-03-23T14:50:08;2.50;;;2.40;;
57573;SDS011;68988;49.000;21.242;2024-03-23T14:52:36;2.90;;;2.78;;
57573;SDS011;68988;49.000;21.242;2024-03-23T14:55:02;2.38;;;2.28;;
57573;SDS011;68988;49.000;21.242;2024-03-23T14:57:27;2.60;;;2.50;;
57573;SDS011;68988;49.000;21.242;2024-03-23T14:59:54;2.47;;;2.38;;
57573;SDS011;68988;49.000;21.242;2024-03-23T15:02:20;2.83;;;2.63;;
57573;SDS011;68988;49.000;21.242;2024-03-23T15:04:45;2.67;;;2.47;;
57573;SDS011;68988;49.000;21.242;2024-03-23T15:07:10;2.92;;;2.83;;
57573;SDS011;68988;49.000;21.242;2024-03-23T15:09:36;2.53;;;2.42;;
57573;SDS011;68988;49.000;21.242;2024-03-23T15:12:01;2.42;;;2.33;;
57573;SDS011;68988;49.000;21.242;2024-03-23T15:14:26;2.30;;;2.20;;
57573;SDS011;68988;49.000;21.242;2024-03-23T15:16:52;2.65;;;2.53;;
57573;SDS011;68988;49.000;21.242;2024-03-23T15:19:17;2.40;;;2.30;;
57573;SDS011;68988;49.000;21.242;2024-03-23T15:21:43;2.38;;;2.28;;
57573;SDS011;68988;49.000;21.242;2024-03-23T15:24:09;2.10;;;2.00;;
57573;SDS011;68988;49.000;21.242;2024-03-23T15:26:37;2.50;;;2.40;;
57573;SDS011;68988;49.000;21.242;2024-03-23T15:29:03;2.67;;;2.58;;
57573;SDS011;68988;49.000;21.242;2024-03-23T15:31:36;2.42;;;2.33;;
57573;SDS011;68988;49.000;21.242;2024-03-23T15:34:02;2.38;;;2.28;;
57573;SDS011;68988;49.000;21.242;2024-03-23T15:36:28;2.50;;;2.40;;
57573;SDS011;68988;49.000;21.242;2024-03-23T15:38:54;2.63;;;2.53;;
57573;SDS011;68988;49.000;21.242;2024-03-23T15:41:20;2.40;;;2.30;;
57573;SDS011;68988;49.000;21.242;2024-03-23T15:43:48;2.67;;;2.58;;
57573;SDS011;68988;49.000;21.242;2024-03-23T15:46:13;2.30;;;2.20;;
57573;SDS011;68988;49.000;21.242;2024-03-23T15:48:40;2.08;;;1.98;;
57573;SDS011;68988;49.000;21.242;2024-03-23T15:51:05;2.10;;;2.00;;